sensor_id;sensor_type;location;lat;lon;timestamp;pressure;altitude;pressure_sealevel;temperature;humidity
35419;BME280;21525;41.240;16.500;2023-04-28T00:02:07;101757.41;;;20.06;36.57
35419;BME280;21525;41.240;16.500;2023-04-28T00:04:32;101750.06;;;20.14;36.72
35419;BME280;21525;41.240;16.500;2023-04-28T00:06:58;101752.78;;;20.13;36.50
35419;BME280;21525;41.240;16.500;2023-04-28T00:09:24;101758.03;;;20.38;35.96
35419;BME280;21525;41.240;16.500;2023-04-28T00:11:50;101758.22;;;20.32;35.96
35419;BME280;21525;41.240;16.500;2023-04-28T00:14:15;101763.09;;;20.44;35.57
35419;BME280;21525;41.240;16.500;2023-04-28T00:16:41;101770.84;;;20.24;35.98
35419;BME280;21525;41.240;16.500;2023-04-28T00:19:07;101765.69;;;20.21;36.15
35419;BME280;21525;41.240;16.500;2023-04-28T00:21:32;101769.19;;;20.46;35.83
35419;BME280;21525;41.240;16.500;2023-04-28T00:23:58;101759.91;;;20.58;35.11
35419;BME280;21525;41.240;16.500;2023-04-28T00:26:24;101760.94;;;20.54;35.08
35419;BME280;21525;41.240;16.500;2023-04-28T00:28:50;101758.47;;;20.72;35.30
35419;BME280;21525;41.240;16.500;2023-04-28T00:31:15;101759.31;;;20.26;35.27
35419;BME280;21525;41.240;16.500;2023-04-28T00:33:42;101756.38;;;19.61;36.33
35419;BME280;21525;41.240;16.500;2023-04-28T00:36:09;101759.47;;;19.73;36.28
35419;BME280;21525;41.240;16.500;2023-04-28T00:38:36;101762.16;;;19.72;36.52
35419;BME280;21525;41.240;16.500;2023-04-28T00:41:03;101761.72;;;19.84;36.23
35419;BME280;21525;41.240;16.500;2023-04-28T00:43:29;101762.38;;;19.91;35.80
35419;BME280;21525;41.240;16.500;2023-04-28T00:45:54;101762.00;;;20.25;35.57
35419;BME280;21525;41.240;16.500;2023-04-28T00:48:20;101761.56;;;20.13;35.49
35419;BME280;21525;41.240;16.500;2023-04-28T00:50:47;101762.81;;;19.78;35.68
35419;BME280;21525;41.240;16.500;2023-04-28T00:53:13;101761.28;;;19.71;36.13
35419;BME280;21525;41.240;16.500;2023-04-28T00:55:39;101764.75;;;19.98;35.87
35419;BME280;21525;41.240;16.500;2023-04-28T00:58:05;101760.28;;;20.00;35.63
35419;BME280;21525;41.240;16.500;2023-04-28T01:00:31;101761.47;;;20.15;35.52
35419;BME280;21525;41.240;16.500;2023-04-28T01:02:58;101761.66;;;19.86;35.97
35419;BME280;21525;41.240;16.500;2023-04-28T01:05:25;101762.06;;;19.75;36.15
35419;BME280;21525;41.240;16.500;2023-04-28T01:07:51;101775.16;;;19.78;36.04
35419;BME280;21525;41.240;16.500;2023-04-28T01:10:17;101769.06;;;19.76;36.03
35419;BME280;21525;41.240;16.500;2023-04-28T01:12:43;101772.41;;;19.81;35.72
35419;BME280;21525;41.240;16.500;2023-04-28T01:15:17;101775.53;;;20.16;35.53
35419;BME280;21525;41.240;16.500;2023-04-28T01:17:46;101772.00;;;20.17;35.34
35419;BME280;21525;41.240;16.500;2023-04-28T01:20:13;101781.25;;;20.05;35.38
35419;BME280;21525;41.240;16.500;2023-04-28T01:22:39;101771.84;;;19.96;35.01
35419;BME280;21525;41.240;16.500;2023-04-28T01:25:05;101770.63;;;19.82;35.01
35419;BME280;21525;41.240;16.500;2023-04-28T01:27:31;101774.69;;;19.90;34.88
35419;BME280;21525;41.240;16.500;2023-04-28T01:29:57;101781.44;;;19.74;35.33
35419;BME280;21525;41.240;16.500;2023-04-28T01:32:23;101783.22;;;19.73;35.25
35419;BME280;21525;41.240;16.500;2023-04-28T01:34:49;101785.09;;;19.95;35.18
35419;BME280;21525;41.240;16.500;2023-04-28T01:37:14;101793.84;;;19.72;35.46
35419;BME280;21525;41.240;16.500;2023-04-28T01:39:40;101787.75;;;19.95;35.45
35419;BME280;21525;41.240;16.500;2023-04-28T01:42:06;101784.25;;;19.94;35.64
35419;BME280;21525;41.240;16.500;2023-04-28T01:44:32;101788.00;;;19.62;35.95
35419;BME280;21525;41.240;16.500;2023-04-28T01:46:58;101787.59;;;19.74;35.68
35419;BME280;21525;41.240;16.500;2023-04-28T01:49:23;101790.88;;;19.81;35.60
35419;BME280;21525;41.240;16.500;2023-04-28T01:51:49;101790.88;;;19.81;35.75
35419;BME280;21525;41.240;16.500;2023-04-28T01:54:15;101805.31;;;19.96;35.32
35419;BME280;21525;41.240;16.500;2023-04-28T01:56:41;101787.81;;;19.93;35.36
35419;BME280;21525;41.240;16.500;2023-04-28T01:59:06;101792.56;;;20.08;35.34
35419;BME280;21525;41.240;16.500;2023-04-28T02:01:33;101794.94;;;20.14;35.46
35419;BME280;21525;41.240;16.500;2023-04-28T02:03:59;101793.59;;;20.28;35.63
35419;BME280;21525;41.240;16.500;2023-04-28T02:06:25;101802.66;;;20.21;35.87
35419;BME280;21525;41.240;16.500;2023-04-28T02:08:52;101794.94;;;20.14;36.00
35419;BME280;21525;41.240;16.500;2023-04-28T02:11:18;101795.19;;;20.08;36.24
35419;BME280;21525;41.240;16.500;2023-04-28T02:13:44;101797.84;;;20.08;35.89
35419;BME280;21525;41.240;16.500;2023-04-28T02:16:10;101794.75;;;20.21;35.44
35419;BME280;21525;41.240;16.500;2023-04-28T02:18:36;101791.19;;;20.22;34.99
35419;BME280;21525;41.240;16.500;2023-04-28T02:21:11;101794.81;;;19.94;35.55
35419;BME280;21525;41.240;16.500;2023-04-28T02:23:38;101797.03;;;20.06;35.70
35419;BME280;21525;41.240;16.500;2023-04-28T02:26:04;101799.56;;;20.09;35.64
35419;BME280;21525;41.240;16.500;2023-04-28T02:28:30;101796.75;;;20.39;35.25
35419;BME280;21525;41.240;16.500;2023-04-28T02:31:07;101801.44;;;20.31;35.23
35419;BME280;21525;41.240;16.500;2023-04-28T02:33:34;101805.25;;;20.22;35.61
35419;BME280;21525;41.240;16.500;2023-04-28T02:36:01;101812.53;;;20.16;35.74
35419;BME280;21525;41.240;16.500;2023-04-28T02:38:27;101816.47;;;20.29;35.53
35419;BME280;21525;41.240;16.500;2023-04-28T02:41:01;101814.31;;;20.15;35.75
35419;BME280;21525;41.240;16.500;2023-04-28T02:43:30;101813.28;;;20.19;35.48
35419;BME280;21525;41.240;16.500;2023-04-28T02:45:56;101815.13;;;20.17;35.34
35419;BME280;21525;41.240;16.500;2023-04-28T02:48:23;101817.91;;;20.39;35.41
35419;BME280;21525;41.240;16.500;2023-04-28T02:50:49;101815.75;;;20.24;35.90
35419;BME280;21525;41.240;16.500;2023-04-28T02:53:15;101815.75;;;20.24;36.15
35419;BME280;21525;41.240;16.500;2023-04-28T02:55:41;101815.34;;;20.36;36.19
35419;BME280;21525;41.240;16.500;2023-04-28T02:58:08;101818.31;;;20.27;36.34
35419;BME280;21525;41.240;16.500;2023-04-28T03:00:34;101811.84;;;20.10;36.57
35419;BME280;21525;41.240;16.500;2023-04-28T03:02:59;101821.72;;;20.05;36.82
35419;BME280;21525;41.240;16.500;2023-04-28T03:05:26;101821.75;;;20.29;36.32
35419;BME280;21525;41.240;16.500;2023-04-28T03:07:52;101814.66;;;20.06;36.71
35419;BME280;21525;41.240;16.500;2023-04-28T03:10:19;101815.16;;;20.16;36.71
35419;BME280;21525;41.240;16.500;2023-04-28T03:12:45;101814.00;;;20.24;36.57
35419;BME280;21525;41.240;16.500;2023-04-28T03:15:10;101812.75;;;20.34;36.59
35419;BME280;21525;41.240;16.500;2023-04-28T03:17:37;101812.16;;;20.01;37.04
35419;BME280;21525;41.240;16.500;2023-04-28T03:20:08;101813.03;;;19.77;37.50
35419;BME280;21525;41.240;16.500;2023-04-28T03:22:34;101813.91;;;20.02;37.04
35419;BME280;21525;41.240;16.500;2023-04-28T03:25:00;101814.81;;;19.76;37.20
35419;BME280;21525;41.240;16.500;2023-04-28T03:27:28;101823.34;;;19.83;37.19
35419;BME280;21525;41.240;16.500;2023-04-28T03:29:55;101818.19;;;19.80;37.43
35419;BME280;21525;41.240;16.500;2023-04-28T03:32:21;101816.50;;;20.04;37.53
35419;BME280;21525;41.240;16.500;2023-04-28T03:34:47;101811.78;;;19.61;37.55
35419;BME280;21525;41.240;16.500;2023-04-28T03:37:13;101806.03;;;19.76;37.42
35419;BME280;21525;41.240;16.500;2023-04-28T03:39:39;101818.31;;;19.77;37.64
35419;BME280;21525;41.240;16.500;2023-04-28T03:42:05;101809.78;;;19.94;37.50
35419;BME280;21525;41.240;16.500;2023-04-28T03:44:30;101806.50;;;19.87;37.71
35419;BME280;21525;41.240;16.500;2023-04-28T03:46:57;101816.59;;;20.01;37.44
35419;BME280;21525;41.240;16.500;2023-04-28T03:49:23;101819.66;;;19.62;37.53
35419;BME280;21525;41.240;16.500;2023-04-28T03:51:49;101817.13;;;20.10;37.05
35419;BME280;21525;41.240;16.500;2023-04-28T03:54:17;101824.50;;;19.76;37.46
35419;BME280;21525;41.240;16.500;2023-04-28T03:56:43;101823.13;;;19.64;37.46
35419;BME280;21525;41.240;16.500;2023-04-28T03:59:08;101821.75;;;19.79;37.38
35419;BME280;21525;41.240;16.500;2023-04-28T04:01:38;101827.94;;;19.78;37.65
35419;BME280;21525;41.240;16.500;2023-04-28T04:04:04;101827.34;;;19.70;37.63
35419;BME280;21525;41.240;16.500;2023-04-28T04:06:30;101821.38;;;19.90;37.73
35419;BME280;21525;41.240;16.500;2023-04-28T04:08:57;101827.34;;;19.95;37.72
35419;BME280;21525;41.240;16.500;2023-04-28T04:11:23;101825.72;;;20.16;37.55
35419;BME280;21525;41.240;16.500;2023-04-28T04:13:49;101822.03;;;20.21;37.01
35419;BME280;21525;41.240;16.500;2023-04-28T04:16:15;101827.16;;;20.26;37.12
35419;BME280;21525;41.240;16.500;2023-04-28T04:18:41;101826.09;;;20.06;37.27
35419;BME280;21525;41.240;16.500;2023-04-28T04:21:17;101832.31;;;19.79;38.08
35419;BME280;21525;41.240;16.500;2023-04-28T04:23:44;101828.41;;;20.40;37.52
35419;BME280;21525;41.240;16.500;2023-04-28T04:26:10;101830.88;;;21.59;35.92
35419;BME280;21525;41.240;16.500;2023-04-28T04:28:37;101824.31;;;22.88;33.98
35419;BME280;21525;41.240;16.500;2023-04-28T04:31:04;101816.03;;;24.02;32.36
35419;BME280;21525;41.240;16.500;2023-04-28T04:33:30;101812.34;;;24.70;31.50
35419;BME280;21525;41.240;16.500;2023-04-28T04:35:56;101810.78;;;25.61;30.53
35419;BME280;21525;41.240;16.500;2023-04-28T04:38:21;101812.06;;;26.14;29.84
35419;BME280;21525;41.240;16.500;2023-04-28T04:40:47;101809.00;;;27.05;29.08
35419;BME280;21525;41.240;16.500;2023-04-28T04:43:13;101815.94;;;27.34;28.67
35419;BME280;21525;41.240;16.500;2023-04-28T04:45:44;101811.41;;;27.89;27.50
35419;BME280;21525;41.240;16.500;2023-04-28T04:48:11;101814.28;;;28.74;26.25
35419;BME280;21525;41.240;16.500;2023-04-28T04:50:37;101811.59;;;29.48;25.69
35419;BME280;21525;41.240;16.500;2023-04-28T04:53:03;101810.75;;;29.58;24.93
35419;BME280;21525;41.240;16.500;2023-04-28T04:55:30;101811.72;;;29.33;25.19
35419;BME280;21525;41.240;16.500;2023-04-28T04:57:56;101813.97;;;29.16;25.25
35419;BME280;21525;41.240;16.500;2023-04-28T05:00:28;101815.47;;;30.81;24.61
35419;BME280;21525;41.240;16.500;2023-04-28T05:02:54;101809.13;;;30.59;24.62
35419;BME280;21525;41.240;16.500;2023-04-28T05:05:21;101805.47;;;30.49;24.36
35419;BME280;21525;41.240;16.500;2023-04-28T05:07:53;101803.56;;;31.05;24.04
35419;BME280;21525;41.240;16.500;2023-04-28T05:10:20;101809.66;;;31.07;23.72
35419;BME280;21525;41.240;16.500;2023-04-28T05:12:46;101814.91;;;31.09;24.09
35419;BME280;21525;41.240;16.500;2023-04-28T05:15:12;101809.13;;;31.57;23.57
35419;BME280;21525;41.240;16.500;2023-04-28T05:17:44;101813.25;;;31.61;23.99
35419;BME280;21525;41.240;16.500;2023-04-28T05:20:10;101815.34;;;31.89;23.84
35419;BME280;21525;41.240;16.500;2023-04-28T05:22:36;101824.84;;;32.14;23.54
35419;BME280;21525;41.240;16.500;2023-04-28T05:25:02;101820.31;;;32.15;23.82
35419;BME280;21525;41.240;16.500;2023-04-28T05:27:28;101824.94;;;31.82;24.06
35419;BME280;21525;41.240;16.500;2023-04-28T05:29:53;101826.78;;;32.63;23.98
35419;BME280;21525;41.240;16.500;2023-04-28T05:32:19;101827.38;;;33.26;22.76
35419;BME280;21525;41.240;16.500;2023-04-28T05:34:45;101833.66;;;33.75;22.95
35419;BME280;21525;41.240;16.500;2023-04-28T05:37:11;101830.13;;;33.65;22.93
35419;BME280;21525;41.240;16.500;2023-04-28T05:39:39;101827.03;;;34.35;22.41
35419;BME280;21525;41.240;16.500;2023-04-28T05:42:06;101833.97;;;34.28;22.71
35419;BME280;21525;41.240;16.500;2023-04-28T05:44:33;101836.13;;;34.72;22.26
35419;BME280;21525;41.240;16.500;2023-04-28T05:46:59;101841.88;;;35.85;21.81
35419;BME280;21525;41.240;16.500;2023-04-28T05:49:26;101836.63;;;35.48;21.80
35419;BME280;21525;41.240;16.500;2023-04-28T05:51:52;101845.19;;;35.08;22.07
35419;BME280;21525;41.240;16.500;2023-04-28T05:54:17;101848.47;;;35.01;21.70
35419;BME280;21525;41.240;16.500;2023-04-28T05:56:47;101855.88;;;34.72;22.33
35419;BME280;21525;41.240;16.500;2023-04-28T05:59:13;101858.31;;;34.19;23.63
35419;BME280;21525;41.240;16.500;2023-04-28T06:01:40;101859.28;;;34.37;22.69
35419;BME280;21525;41.240;16.500;2023-04-28T06:04:06;101862.75;;;34.10;22.97
35419;BME280;21525;41.240;16.500;2023-04-28T06:06:31;101860.19;;;34.09;23.44
35419;BME280;21525;41.240;16.500;2023-04-28T06:08:59;101869.09;;;34.19;23.59
35419;BME280;21525;41.240;16.500;2023-04-28T06:11:25;101869.16;;;34.09;24.41
35419;BME280;21525;41.240;16.500;2023-04-28T06:13:51;101877.97;;;32.94;24.81
35419;BME280;21525;41.240;16.500;2023-04-28T06:16:17;101879.09;;;32.30;26.08
35419;BME280;21525;41.240;16.500;2023-04-28T06:18:43;101883.94;;;32.16;25.84
35419;BME280;21525;41.240;16.500;2023-04-28T06:21:09;101889.50;;;31.82;26.09
35419;BME280;21525;41.240;16.500;2023-04-28T06:23:35;101894.38;;;32.09;26.34
35419;BME280;21525;41.240;16.500;2023-04-28T06:26:03;101890.78;;;32.41;26.17
35419;BME280;21525;41.240;16.500;2023-04-28T06:28:29;101900.16;;;32.46;25.64
35419;BME280;21525;41.240;16.500;2023-04-28T06:30:55;101898.44;;;32.45;25.63
35419;BME280;21525;41.240;16.500;2023-04-28T06:33:20;101895.63;;;32.47;25.09
35419;BME280;21525;41.240;16.500;2023-04-28T06:35:46;101909.84;;;32.79;23.65
35419;BME280;21525;41.240;16.500;2023-04-28T06:38:14;101915.59;;;31.91;25.71
35419;BME280;21525;41.240;16.500;2023-04-28T06:40:40;101902.75;;;31.08;26.32
35419;BME280;21525;41.240;16.500;2023-04-28T06:43:06;101895.66;;;31.73;25.61
35419;BME280;21525;41.240;16.500;2023-04-28T06:45:39;101904.94;;;32.01;24.67
35419;BME280;21525;41.240;16.500;2023-04-28T06:48:06;101901.94;;;32.36;25.42
35419;BME280;21525;41.240;16.500;2023-04-28T06:50:36;101903.88;;;32.55;26.34
35419;BME280;21525;41.240;16.500;2023-04-28T06:53:04;101907.59;;;32.94;25.72
35419;BME280;21525;41.240;16.500;2023-04-28T06:55:30;101906.25;;;32.06;25.88
35419;BME280;21525;41.240;16.500;2023-04-28T06:57:57;101907.56;;;31.48;26.67
35419;BME280;21525;41.240;16.500;2023-04-28T07:00:23;101901.41;;;32.72;25.85
35419;BME280;21525;41.240;16.500;2023-04-28T07:02:49;101900.69;;;32.70;25.30
35419;BME280;21525;41.240;16.500;2023-04-28T07:05:14;101910.78;;;32.27;25.59
35419;BME280;21525;41.240;16.500;2023-04-28T07:07:40;101908.56;;;30.47;27.54
35419;BME280;21525;41.240;16.500;2023-04-28T07:10:06;101900.41;;;31.04;28.01
35419;BME280;21525;41.240;16.500;2023-04-28T07:12:32;101910.84;;;31.52;27.57
35419;BME280;21525;41.240;16.500;2023-04-28T07:14:58;101914.94;;;31.35;27.84
35419;BME280;21525;41.240;16.500;2023-04-28T07:17:24;101906.91;;;31.13;27.89
35419;BME280;21525;41.240;16.500;2023-04-28T07:19:49;101916.06;;;30.77;27.13
35419;BME280;21525;41.240;16.500;2023-04-28T07:22:16;101906.56;;;30.84;27.26
35419;BME280;21525;41.240;16.500;2023-04-28T07:24:43;101913.72;;;30.50;28.73
35419;BME280;21525;41.240;16.500;2023-04-28T07:27:08;101915.53;;;30.03;29.04
35419;BME280;21525;41.240;16.500;2023-04-28T07:29:34;101902.66;;;29.95;28.43
35419;BME280;21525;41.240;16.500;2023-04-28T07:32:00;101919.38;;;28.91;28.93
35419;BME280;21525;41.240;16.500;2023-04-28T07:34:27;101926.50;;;28.77;29.43
35419;BME280;21525;41.240;16.500;2023-04-28T07:36:53;101921.47;;;28.60;29.04
35419;BME280;21525;41.240;16.500;2023-04-28T07:39:19;101919.09;;;29.06;29.02
35419;BME280;21525;41.240;16.500;2023-04-28T07:41:45;101927.22;;;29.18;29.00
35419;BME280;21525;41.240;16.500;2023-04-28T07:44:10;101925.47;;;29.29;29.36
35419;BME280;21525;41.240;16.500;2023-04-28T07:46:36;101921.06;;;29.65;28.62
35419;BME280;21525;41.240;16.500;2023-04-28T07:49:02;101928.63;;;27.95;30.37
35419;BME280;21525;41.240;16.500;2023-04-28T07:51:29;101927.81;;;29.47;28.93
35419;BME280;21525;41.240;16.500;2023-04-28T07:53:55;101923.81;;;28.39;29.89
35419;BME280;21525;41.240;16.500;2023-04-28T07:56:21;101929.81;;;28.94;30.42
35419;BME280;21525;41.240;16.500;2023-04-28T07:58:47;101930.72;;;29.31;29.72
35419;BME280;21525;41.240;16.500;2023-04-28T08:01:13;101925.97;;;30.19;29.05
35419;BME280;21525;41.240;16.500;2023-04-28T08:03:39;101931.19;;;29.96;29.49
35419;BME280;21525;41.240;16.500;2023-04-28T08:06:05;101941.50;;;29.55;30.32
35419;BME280;21525;41.240;16.500;2023-04-28T08:08:31;101939.56;;;29.20;31.17
35419;BME280;21525;41.240;16.500;2023-04-28T08:10:57;101947.00;;;29.53;30.89
35419;BME280;21525;41.240;16.500;2023-04-28T08:13:23;101939.47;;;29.93;31.09
35419;BME280;21525;41.240;16.500;2023-04-28T08:15:49;101939.59;;;29.31;30.75
35419;BME280;21525;41.240;16.500;2023-04-28T08:18:15;101935.19;;;29.80;30.30
35419;BME280;21525;41.240;16.500;2023-04-28T08:20:41;101933.81;;;29.74;30.43
35419;BME280;21525;41.240;16.500;2023-04-28T08:23:08;101943.25;;;29.91;30.68
35419;BME280;21525;41.240;16.500;2023-04-28T08:25:34;101945.06;;;29.30;31.98
35419;BME280;21525;41.240;16.500;2023-04-28T08:27:59;101941.16;;;29.23;32.12
35419;BME280;21525;41.240;16.500;2023-04-28T08:30:28;101949.06;;;29.24;32.65
35419;BME280;21525;41.240;16.500;2023-04-28T08:32:54;101946.47;;;29.48;32.13
35419;BME280;21525;41.240;16.500;2023-04-28T08:35:20;101952.28;;;28.28;33.08
35419;BME280;21525;41.240;16.500;2023-04-28T08:37:45;101949.66;;;28.53;31.85
35419;BME280;21525;41.240;16.500;2023-04-28T08:40:14;101947.41;;;27.81;33.19
35419;BME280;21525;41.240;16.500;2023-04-28T08:42:40;101941.94;;;28.09;33.36
35419;BME280;21525;41.240;16.500;2023-04-28T08:45:07;101941.53;;;27.75;33.65
35419;BME280;21525;41.240;16.500;2023-04-28T08:47:39;101940.50;;;26.94;35.93
35419;BME280;21525;41.240;16.500;2023-04-28T08:50:14;101940.53;;;27.35;35.59
35419;BME280;21525;41.240;16.500;2023-04-28T08:52:44;101945.13;;;27.48;34.94
35419;BME280;21525;41.240;16.500;2023-04-28T08:55:11;101943.66;;;27.01;35.93
35419;BME280;21525;41.240;16.500;2023-04-28T08:57:45;101949.88;;;27.42;34.94
35419;BME280;21525;41.240;16.500;2023-04-28T09:00:14;101947.09;;;26.30;36.81
35419;BME280;21525;41.240;16.500;2023-04-28T09:02:40;101947.59;;;26.95;35.60
35419;BME280;21525;41.240;16.500;2023-04-28T09:05:07;101944.13;;;26.93;35.59
35419;BME280;21525;41.240;16.500;2023-04-28T09:07:34;101946.56;;;26.24;36.33
35419;BME280;21525;41.240;16.500;2023-04-28T09:10:21;101938.75;;;26.65;36.35
35419;BME280;21525;41.240;16.500;2023-04-28T09:12:53;101948.03;;;27.02;36.42
35419;BME280;21525;41.240;16.500;2023-04-28T09:15:28;101937.41;;;26.72;38.01
35419;BME280;21525;41.240;16.500;2023-04-28T09:17:55;101928.94;;;27.22;38.23
35419;BME280;21525;41.240;16.500;2023-04-28T09:20:28;101931.72;;;26.78;38.50
35419;BME280;21525;41.240;16.500;2023-04-28T09:22:55;101929.72;;;27.10;38.67
35419;BME280;21525;41.240;16.500;2023-04-28T09:25:22;101921.84;;;26.36;40.54
35419;BME280;21525;41.240;16.500;2023-04-28T09:27:49;101935.25;;;26.34;39.86
35419;BME280;21525;41.240;16.500;2023-04-28T09:30:15;101928.75;;;26.24;40.65
35419;BME280;21525;41.240;16.500;2023-04-28T09:32:41;101925.94;;;26.41;40.14
35419;BME280;21525;41.240;16.500;2023-04-28T09:35:07;101937.59;;;25.65;41.55
35419;BME280;21525;41.240;16.500;2023-04-28T09:37:34;101934.09;;;25.47;42.29
35419;BME280;21525;41.240;16.500;2023-04-28T09:40:09;101936.06;;;25.91;41.94
35419;BME280;21525;41.240;16.500;2023-04-28T09:42:37;101926.88;;;25.96;41.95
35419;BME280;21525;41.240;16.500;2023-04-28T09:45:10;101929.38;;;25.36;43.49
35419;BME280;21525;41.240;16.500;2023-04-28T09:47:38;101923.44;;;25.63;43.43
35419;BME280;21525;41.240;16.500;2023-04-28T09:50:07;101920.03;;;26.06;42.44
35419;BME280;21525;41.240;16.500;2023-04-28T09:52:37;101922.75;;;24.29;45.68
35419;BME280;21525;41.240;16.500;2023-04-28T09:55:04;101903.09;;;25.15;44.73
35419;BME280;21525;41.240;16.500;2023-04-28T09:57:32;101911.25;;;25.27;45.17
35419;BME280;21525;41.240;16.500;2023-04-28T09:59:59;101900.06;;;25.84;44.34
35419;BME280;21525;41.240;16.500;2023-04-28T10:02:25;101890.44;;;25.81;44.35
35419;BME280;21525;41.240;16.500;2023-04-28T10:04:51;101895.16;;;25.92;44.48
35419;BME280;21525;41.240;16.500;2023-04-28T10:07:19;101884.31;;;26.09;44.24
35419;BME280;21525;41.240;16.500;2023-04-28T10:09:49;101887.34;;;25.41;45.26
35419;BME280;21525;41.240;16.500;2023-04-28T10:12:16;101885.97;;;26.56;43.97
35419;BME280;21525;41.240;16.500;2023-04-28T10:14:43;101871.72;;;25.67;46.09
35419;BME280;21525;41.240;16.500;2023-04-28T10:17:10;101875.59;;;25.14;46.67
35419;BME280;21525;41.240;16.500;2023-04-28T10:19:40;101866.94;;;24.77;48.63
35419;BME280;21525;41.240;16.500;2023-04-28T10:27:32;101851.31;;;25.20;47.93
35419;BME280;21525;41.240;16.500;2023-04-28T10:30:28;101851.63;;;25.91;46.94
35419;BME280;21525;41.240;16.500;2023-04-28T10:35:42;101844.94;;;25.23;47.29
35419;BME280;21525;41.240;16.500;2023-04-28T10:38:18;101843.28;;;23.88;49.50
35419;BME280;21525;41.240;16.500;2023-04-28T10:43:36;101839.25;;;23.98;50.34
35419;BME280;21525;41.240;16.500;2023-04-28T10:46:08;101837.97;;;24.05;50.19
35419;BME280;21525;41.240;16.500;2023-04-28T10:56:12;101834.25;;;24.42;48.37
35419;BME280;21525;41.240;16.500;2023-04-28T10:58:39;101832.19;;;24.32;49.46
35419;BME280;21525;41.240;16.500;2023-04-28T11:01:23;101827.91;;;23.41;53.04
35419;BME280;21525;41.240;16.500;2023-04-28T11:06:41;101822.50;;;23.79;52.01
35419;BME280;21525;41.240;16.500;2023-04-28T11:14:38;101812.69;;;25.43;47.42
35419;BME280;21525;41.240;16.500;2023-04-28T11:17:08;101815.47;;;23.42;48.73
35419;BME280;21525;41.240;16.500;2023-04-28T11:19:44;101818.84;;;23.99;49.14
35419;BME280;21525;41.240;16.500;2023-04-28T11:22:21;101799.75;;;24.90;46.34
35419;BME280;21525;41.240;16.500;2023-04-28T11:24:58;101801.69;;;24.55;49.81
35419;BME280;21525;41.240;16.500;2023-04-28T11:27:33;101802.94;;;24.65;48.09
35419;BME280;21525;41.240;16.500;2023-04-28T11:29:59;101808.84;;;24.37;46.91
35419;BME280;21525;41.240;16.500;2023-04-28T11:32:26;101805.59;;;24.32;47.57
35419;BME280;21525;41.240;16.500;2023-04-28T11:34:53;101820.53;;;22.35;48.70
35419;BME280;21525;41.240;16.500;2023-04-28T11:37:18;101815.31;;;22.53;52.80
35419;BME280;21525;41.240;16.500;2023-04-28T11:39:46;101812.88;;;23.76;49.58
35419;BME280;21525;41.240;16.500;2023-04-28T11:42:12;101822.13;;;22.19;51.06
35419;BME280;21525;41.240;16.500;2023-04-28T11:44:37;101820.56;;;23.65;49.87
35419;BME280;21525;41.240;16.500;2023-04-28T11:47:04;101816.34;;;22.30;52.13
35419;BME280;21525;41.240;16.500;2023-04-28T11:49:41;101808.91;;;22.96;51.85
35419;BME280;21525;41.240;16.500;2023-04-28T11:52:08;101814.75;;;22.26;54.22
35419;BME280;21525;41.240;16.500;2023-04-28T11:54:35;101811.31;;;23.19;50.54
35419;BME280;21525;41.240;16.500;2023-04-28T11:57:01;101814.91;;;23.18;51.88
35419;BME280;21525;41.240;16.500;2023-04-28T11:59:31;101816.50;;;22.85;50.63
35419;BME280;21525;41.240;16.500;2023-04-28T12:02:01;101811.06;;;22.88;51.85
35419;BME280;21525;41.240;16.500;2023-04-28T12:04:32;101816.19;;;23.28;51.82
35419;BME280;21525;41.240;16.500;2023-04-28T12:09:39;101823.13;;;24.01;48.71
35419;BME280;21525;41.240;16.500;2023-04-28T12:12:06;101823.53;;;22.86;50.90
35419;BME280;21525;41.240;16.500;2023-04-28T12:15:38;101810.94;;;23.80;48.87
35419;BME280;21525;41.240;16.500;2023-04-28T12:17:44;101809.78;;;22.76;50.75
35419;BME280;21525;41.240;16.500;2023-04-28T12:20:12;101810.22;;;22.48;51.11
35419;BME280;21525;41.240;16.500;2023-04-28T12:22:57;101799.50;;;22.89;50.59
35419;BME280;21525;41.240;16.500;2023-04-28T12:25:23;101805.09;;;22.25;49.78
35419;BME280;21525;41.240;16.500;2023-04-28T12:28:05;101793.94;;;23.12;47.43
35419;BME280;21525;41.240;16.500;2023-04-28T12:30:36;101789.00;;;23.59;47.43
35419;BME280;21525;41.240;16.500;2023-04-28T12:33:24;101790.44;;;22.16;49.58
35419;BME280;21525;41.240;16.500;2023-04-28T12:35:50;101784.31;;;22.73;50.07
35419;BME280;21525;41.240;16.500;2023-04-28T12:38:19;101774.19;;;22.82;51.78
35419;BME280;21525;41.240;16.500;2023-04-28T12:40:44;101780.84;;;22.53;49.84
35419;BME280;21525;41.240;16.500;2023-04-28T12:43:11;101772.75;;;21.96;49.83
35419;BME280;21525;41.240;16.500;2023-04-28T12:45:36;101772.28;;;22.46;50.96
35419;BME280;21525;41.240;16.500;2023-04-28T12:48:02;101768.44;;;22.53;49.17
35419;BME280;21525;41.240;16.500;2023-04-28T12:50:28;101771.19;;;22.70;46.44
35419;BME280;21525;41.240;16.500;2023-04-28T12:52:57;101761.94;;;22.60;48.73
35419;BME280;21525;41.240;16.500;2023-04-28T12:55:24;101764.31;;;22.85;46.42
35419;BME280;21525;41.240;16.500;2023-04-28T12:57:52;101756.50;;;23.18;46.49
35419;BME280;21525;41.240;16.500;2023-04-28T13:00:19;101744.06;;;23.89;46.81
35419;BME280;21525;41.240;16.500;2023-04-28T13:02:48;101744.44;;;22.56;46.53
35419;BME280;21525;41.240;16.500;2023-04-28T13:05:14;101746.66;;;22.65;49.19
35419;BME280;21525;41.240;16.500;2023-04-28T13:07:40;101740.00;;;22.57;48.73
35419;BME280;21525;41.240;16.500;2023-04-28T13:10:06;101744.09;;;22.64;45.06
35419;BME280;21525;41.240;16.500;2023-04-28T13:12:33;101742.94;;;23.41;44.33